Terminal Aerodrome Forecast
Issued by NWS

Home | Current Version | Previous Version | Text Only | Print | Product List | Glossary On
Versions: 1 2 3 4 5 6 7 8 9 10 11 12 13 14 15 16 17 18
000
FTUS41 KPHI 220500
TAFMIV
TAF
KMIV 220532Z 2206/2306 VRB03KT P6SM SCT025 BKN035
      TEMPO 2206/2209 -SHRA BKN025
     FM220900 VRB03KT 4SM BR OVC015
      TEMPO 2209/2212 -SHRA
     FM221300 09004KT P6SM OVC020
     FM221700 10008KT P6SM -SHRA BKN040
     FM230300 07006KT 5SM BR OVC025=

USA.gov is the U.S. government's official web portal to all federal, state and local government web resources and services.